Aida — SBLI — position and weather

sailwx.info

Track history (hours):
 
Tides and Currents Weather Stations Pressure Air Temp Water Temp Dewpoint Dewpoint Depression Visibility Wind Speed Wind Dir Waves Ship Positions

Aida

Last reported at 2014-Aug-30 07:32 UTC. Time now 2014-Aug-30 08:34 UTC.
Position N 51°19' E 003°14'.

Length 199.1 m; beam 32.3 m; draft 9.5 m.

Type: Cargo ship. MMSI: 266211000.

Date/timePositionNaut miles runAvg speedWind from/ knotsBaromVisibWave heightAir tempDewpointWater temp
2014-Aug-30 07:32N 51°19' E 003°14'0 0.0
2014-Aug-30 06:32N 51°19' E 003°14'0 0.0
2014-Aug-30 05:32N 51°19' E 003°14'0 0.0
2014-Aug-30 04:26N 51°19' E 003°14'0 0.0
2014-Aug-30 03:33N 51°19' E 003°14'0 0.0
2014-Aug-30 02:32N 51°19' E 003°14'0 0.0
2014-Aug-30 01:32N 51°19' E 003°14'0 0.0
2014-Aug-30 00:32N 51°19' E 003°14'0 0.0
2014-Aug-29 23:32N 51°19' E 003°14'0 0.0
2014-Aug-29 22:32N 51°19' E 003°14'0 0.0
2014-Aug-29 21:32N 51°19' E 003°14'0 0.0
2014-Aug-29 20:32N 51°19' E 003°14'0 0.0
2014-Aug-29 19:29N 51°19' E 003°14'0 0.0
2014-Aug-29 18:32N 51°19' E 003°14'0 0.0
2014-Aug-29 17:32N 51°19' E 003°14'0 0.0
2014-Aug-29 16:32N 51°19' E 003°14'0 0.0
2014-Aug-29 15:32N 51°19' E 003°14'0 0.0
2014-Aug-29 14:32N 51°19' E 003°14'0 0.0
2014-Aug-29 13:32N 51°19' E 003°14'0 0.0
2014-Aug-29 12:32N 51°19' E 003°14'0 0.0
2014-Aug-29 11:32N 51°19' E 003°14'0 0.0
2014-Aug-29 10:32N 51°19' E 003°14'0 0.0
2014-Aug-29 09:32N 51°19' E 003°14'0 0.0
2014-Aug-29 08:29N 51°19' E 003°14'0 0.0
2014-Aug-29 07:32N 51°19' E 003°14'0 0.0
2014-Aug-29 06:32N 51°19' E 003°14'0 0.0
2014-Aug-29 05:32N 51°19' E 003°14'0 0.0
2014-Aug-29 04:32N 51°19' E 003°14'0 0.0
2014-Aug-29 03:32N 51°19' E 003°14'0 0.0
2014-Aug-29 02:32N 51°19' E 003°14'0 0.0
2014-Aug-29 01:32N 51°19' E 003°14'0 0.0
2014-Aug-29 00:32N 51°19' E 003°14'0 0.0
2014-Aug-28 23:32N 51°19' E 003°14'0 0.0
2014-Aug-28 22:32N 51°19' E 003°14'0 0.1
2014-Aug-28 21:33N 51°19' E 003°13'1 1.0
2014-Aug-28 20:34N 51°20' E 003°13'5 5.2
2014-Aug-28 19:33N 51°24' E 003°07'1414.2
2014-Aug-28 18:33N 51°22' E 002°45'1211.8
2014-Aug-28 17:33N 51°34' E 002°43'10514.6
2014-Aug-28 10:25N 53°04' E 004°11'1415.6
2014-Aug-28 09:33N 53°14' E 004°26'5614.0
2014-Aug-28 05:33N 53°42' E 005°47'1717.2
2014-Aug-28 04:33N 53°48' E 006°15'1717.6
2014-Aug-28 03:33N 53°52' E 006°43'1717.5
2014-Aug-28 02:33N 53°56' E 007°12'1616.4
2014-Aug-28 01:33N 53°59' E 007°40'1110.8
2014-Aug-28 00:32N 53°52' E 007°55'1313.6
2014-Aug-27 23:34N 53°45' E 008°13'1414.0
2014-Aug-27 22:34N 53°35' E 008°31'2 1.6
2014-Aug-27 21:33N 53°34' E 008°33'0 0.4
2014-Aug-27 20:33N 53°35' E 008°33'0 0.0
2014-Aug-27 19:33N 53°35' E 008°33'0 0.0
2014-Aug-27 18:33N 53°35' E 008°33'0 0.0
2014-Aug-27 17:33N 53°35' E 008°33'0 0.0
2014-Aug-27 16:33N 53°35' E 008°33'0 0.0
2014-Aug-27 15:33N 53°35' E 008°33'0 0.0
2014-Aug-27 14:33N 53°35' E 008°33'0 0.0
2014-Aug-27 13:33N 53°35' E 008°33'0 0.0
2014-Aug-27 12:33N 53°35' E 008°33'0 0.0
2014-Aug-27 11:33N 53°35' E 008°33'0 0.0
2014-Aug-27 10:33N 53°35' E 008°33'0 0.0
2014-Aug-27 09:33N 53°35' E 008°33'0 0.0
2014-Aug-27 08:33N 53°35' E 008°33'0 0.0
2014-Aug-27 07:33N 53°35' E 008°33'0 0.0
2014-Aug-27 06:33N 53°35' E 008°33'0 0.0
2014-Aug-27 05:33N 53°35' E 008°33'0 0.0
2014-Aug-27 04:33N 53°35' E 008°33'0 0.0
2014-Aug-27 03:33N 53°35' E 008°33'0 0.0
2014-Aug-27 02:33N 53°35' E 008°33'0 0.0
2014-Aug-27 01:33N 53°35' E 008°33'0 0.0
2014-Aug-27 00:33N 53°35' E 008°33'0 0.0
2014-Aug-26 23:33N 53°35' E 008°33'0 0.0
2014-Aug-26 22:33N 53°35' E 008°33'1 0.5
2014-Aug-26 21:33N 53°34' E 008°33'0 0.0
2014-Aug-26 20:32N 53°34' E 008°33'0 0.0
2014-Aug-26 19:32N 53°34' E 008°33'0 0.0
2014-Aug-26 18:29N 53°34' E 008°33'0 0.0
2014-Aug-26 17:29N 53°34' E 008°33'0 0.0
2014-Aug-26 16:29N 53°34' E 008°33'0 0.0
2014-Aug-26 15:32N 53°34' E 008°33'0 0.0
2014-Aug-26 14:26N 53°34' E 008°33'0 0.0
2014-Aug-26 13:26N 53°34' E 008°33'0 0.0
2014-Aug-26 12:32N 53°34' E 008°33'0 0.0
2014-Aug-26 11:32N 53°34' E 008°33'0 0.0
2014-Aug-26 10:26N 53°34' E 008°33'0 0.0
2014-Aug-26 09:32N 53°34' E 008°33'0 0.0
2014-Aug-26 08:32N 53°34' E 008°33'0 0.0
2014-Aug-26 06:05N 53°34' E 008°33'0 0.0
2014-Aug-26 04:20N 53°34' E 008°33'0 0.0
2014-Aug-26 03:32N 53°34' E 008°33'0 0.0
2014-Aug-26 02:32N 53°34' E 008°33'0 0.0
2014-Aug-26 01:32N 53°34' E 008°33'0 0.0
2014-Aug-26 00:32N 53°34' E 008°33'0 0.0
2014-Aug-25 23:29N 53°34' E 008°33'0 0.0
2014-Aug-25 22:32N 53°34' E 008°33'0 0.0
2014-Aug-25 21:32N 53°34' E 008°33'0 0.0
2014-Aug-25 20:32N 53°34' E 008°33'0 0.0
2014-Aug-25 19:32N 53°34' E 008°33'0 0.0
2014-Aug-25 18:32N 53°34' E 008°33'0 0.0
2014-Aug-25 17:32N 53°34' E 008°33'0 0.0
2014-Aug-25 16:32N 53°34' E 008°33'0 0.0
2014-Aug-25 15:32N 53°34' E 008°33'0 0.0
2014-Aug-25 14:32N 53°34' E 008°33'0 0.0
2014-Aug-25 13:32N 53°34' E 008°33'0 0.0
2014-Aug-25 12:32N 53°34' E 008°33'0 0.0
2014-Aug-25 11:32N 53°34' E 008°33'0 0.0
2014-Aug-25 10:32N 53°34' E 008°33'0 0.0
2014-Aug-25 09:32N 53°34' E 008°33'0 0.0
2014-Aug-25 08:32N 53°34' E 008°33'0 0.0
2014-Aug-25 07:32N 53°34' E 008°33'0 0.0
2014-Aug-25 06:32N 53°34' E 008°33'0 0.0
2014-Aug-25 05:32N 53°34' E 008°33'0 0.0
2014-Aug-25 04:32N 53°34' E 008°33'0 0.0
2014-Aug-25 03:32N 53°34' E 008°33'0 0.0
2014-Aug-25 02:32N 53°34' E 008°33'0 0.0
2014-Aug-25 01:32N 53°34' E 008°33'0 0.0
2014-Aug-25 00:32N 53°34' E 008°33'0 0.0
2014-Aug-24 23:32N 53°34' E 008°33'0 0.0
2014-Aug-24 22:32N 53°34' E 008°33'0 0.0
2014-Aug-24 21:32N 53°34' E 008°33'0 0.0
2014-Aug-24 20:32N 53°34' E 008°33'0 0.0
2014-Aug-24 19:32N 53°34' E 008°33'0 0.0
2014-Aug-24 18:32N 53°34' E 008°33'0 0.0
2014-Aug-24 17:32N 53°34' E 008°33'0 0.0
2014-Aug-24 16:32N 53°34' E 008°33'0 0.0
2014-Aug-24 15:32N 53°34' E 008°33'0 0.0
2014-Aug-24 14:32N 53°34' E 008°33'0 0.0
2014-Aug-24 13:32N 53°34' E 008°33'0 0.0
2014-Aug-24 12:32N 53°34' E 008°33'0 0.0
2014-Aug-24 11:32N 53°34' E 008°33'0 0.0
2014-Aug-24 10:29N 53°34' E 008°33'0 0.0
2014-Aug-24 09:32N 53°34' E 008°33'0 0.0
2014-Aug-24 08:32N 53°34' E 008°33'0 0.0
2014-Aug-24 07:32N 53°34' E 008°33'0 0.0
2014-Aug-24 06:32N 53°34' E 008°33'0 0.0
2014-Aug-24 05:32N 53°34' E 008°33'0 0.0
2014-Aug-24 04:32N 53°34' E 008°33'0 0.0
2014-Aug-24 03:32N 53°34' E 008°33'0 0.0
2014-Aug-24 02:32N 53°34' E 008°33'0 0.0
2014-Aug-24 01:32N 53°34' E 008°33'0 0.0
2014-Aug-24 00:32N 53°34' E 008°33'0 0.0
2014-Aug-23 23:32N 53°34' E 008°33'0 0.0
2014-Aug-23 22:32N 53°34' E 008°33'0 0.0
2014-Aug-23 21:32N 53°34' E 008°33'0 0.0
2014-Aug-23 20:32N 53°34' E 008°33'0 0.0
2014-Aug-23 19:32N 53°34' E 008°33'0 0.0
2014-Aug-23 03:31N 53°34' E 008°33'0 0.0
2014-Aug-23 02:31N 53°34' E 008°33'0 0.0
2014-Aug-23 01:31N 53°34' E 008°33'0 0.0
2014-Aug-23 00:31N 53°34' E 008°33'0 0.0
2014-Aug-22 23:32N 53°34' E 008°33'0 0.0
2014-Aug-22 22:32N 53°34' E 008°33'0 0.0
2014-Aug-22 21:31N 53°34' E 008°33'0 0.0
2014-Aug-22 20:31N 53°34' E 008°33'0 0.0
2014-Aug-22 19:31N 53°34' E 008°33'0 0.0
2014-Aug-22 18:31N 53°34' E 008°33'0 0.0
2014-Aug-22 17:31N 53°34' E 008°33'0 0.0
2014-Aug-22 16:31N 53°34' E 008°33'0 0.0
2014-Aug-22 15:32N 53°34' E 008°33'0 0.0
2014-Aug-22 14:28N 53°34' E 008°33'0 0.0
2014-Aug-22 13:31N 53°34' E 008°33'0 0.0
2014-Aug-22 12:31N 53°34' E 008°33'0 0.0
2014-Aug-22 11:31N 53°34' E 008°33'0 0.0
2014-Aug-22 10:28N 53°34' E 008°33'0 0.0
2014-Aug-22 09:31N 53°34' E 008°33'0 0.0
2014-Aug-22 08:31N 53°34' E 008°33'0 0.0
2014-Aug-22 07:31N 53°34' E 008°33'0 0.0
2014-Aug-22 06:31N 53°34' E 008°33'0 0.0
2014-Aug-22 05:31N 53°34' E 008°33'0 0.0
2014-Aug-22 04:32N 53°34' E 008°33'0 0.0
2014-Aug-22 03:31N 53°34' E 008°33'0 0.0
2014-Aug-22 02:31N 53°34' E 008°33'0 0.0
2014-Aug-22 01:31N 53°34' E 008°33'0 0.0
2014-Aug-22 00:31N 53°34' E 008°33'0 0.0
2014-Aug-21 23:31N 53°34' E 008°33'0 0.0
2014-Aug-21 22:31N 53°34' E 008°33'0 0.0
2014-Aug-21 21:31N 53°34' E 008°33'0 0.0
2014-Aug-21 20:31N 53°34' E 008°33'0 0.0
2014-Aug-21 19:31N 53°34' E 008°33'0 0.0
2014-Aug-21 18:31N 53°34' E 008°33'0 0.0
2014-Aug-21 17:31N 53°34' E 008°33'0 0.0
2014-Aug-21 16:31N 53°34' E 008°33'0 0.0
2014-Aug-21 15:31N 53°34' E 008°33'0 0.0
2014-Aug-21 14:31N 53°34' E 008°33'0 0.0
2014-Aug-21 13:31N 53°34' E 008°33'0 0.0
2014-Aug-21 12:31N 53°34' E 008°33'0 0.0
2014-Aug-21 11:31N 53°34' E 008°33'0 0.0
2014-Aug-21 10:31N 53°34' E 008°33'0 0.0
2014-Aug-21 09:31N 53°34' E 008°33'0 0.0
2014-Aug-21 08:31N 53°34' E 008°33'0 0.0
2014-Aug-21 07:31N 53°34' E 008°33'0 0.0
2014-Aug-21 06:31N 53°34' E 008°33'0 0.0
2014-Aug-21 05:31N 53°34' E 008°33'0 0.0
2014-Aug-21 04:31N 53°34' E 008°33'0 0.0
2014-Aug-21 03:31N 53°34' E 008°33'0 0.0
2014-Aug-21 02:31N 53°34' E 008°33'0 0.0
2014-Aug-21 01:31N 53°34' E 008°33'0 0.0
2014-Aug-21 00:31N 53°34' E 008°33'0 0.0
2014-Aug-20 23:31N 53°34' E 008°33'0 0.0
2014-Aug-20 22:31N 53°34' E 008°33'0 0.0
2014-Aug-20 21:31N 53°34' E 008°33'0 0.0
2014-Aug-20 20:31N 53°34' E 008°33'0 0.0
2014-Aug-20 19:31N 53°34' E 008°33'0 0.0
2014-Aug-20 18:31N 53°34' E 008°33'0 0.0
2014-Aug-20 17:31N 53°34' E 008°33'0 0.0
2014-Aug-20 16:31N 53°34' E 008°33'0 0.0
2014-Aug-20 15:31N 53°34' E 008°33'0 0.0
2014-Aug-20 14:31N 53°34' E 008°33'0 0.0
2014-Aug-20 13:31N 53°34' E 008°33'0 0.0
2014-Aug-20 12:32N 53°34' E 008°33'0 0.0
2014-Aug-20 11:33N 53°34' E 008°33'0 0.0
2014-Aug-20 10:30N 53°34' E 008°33'0 0.0
2014-Aug-20 09:32N 53°34' E 008°33'0 0.0
2014-Aug-20 08:32N 53°34' E 008°33'0 0.0
2014-Aug-20 07:32N 53°34' E 008°33'  
Track history (hours):
 
Tides and Currents Weather Stations Pressure Air Temp Water Temp Dewpoint Dewpoint Depression Visibility Wind Speed Wind Dir Waves Ship Positions

Aida

Last reported at 2014-Aug-30 07:32 UTC. Time now 2014-Aug-30 08:34 UTC.
Position N 51°19' E 003°14'.

Length 199.1 m; beam 32.3 m; draft 9.5 m.

Type: Cargo ship. MMSI: 266211000.

Date/timePositionNaut miles runAvg speedWind from/ knotsBaromVisibWave heightAir tempDewpointWater temp
2014-Aug-30 07:32N 51°19' E 003°14'0 0.0
2014-Aug-30 06:32N 51°19' E 003°14'0 0.0
2014-Aug-30 05:32N 51°19' E 003°14'0 0.0
2014-Aug-30 04:26N 51°19' E 003°14'0 0.0
2014-Aug-30 03:33N 51°19' E 003°14'0 0.0
2014-Aug-30 02:32N 51°19' E 003°14'0 0.0
2014-Aug-30 01:32N 51°19' E 003°14'0 0.0
2014-Aug-30 00:32N 51°19' E 003°14'0 0.0
2014-Aug-29 23:32N 51°19' E 003°14'0 0.0
2014-Aug-29 22:32N 51°19' E 003°14'0 0.0
2014-Aug-29 21:32N 51°19' E 003°14'0 0.0
2014-Aug-29 20:32N 51°19' E 003°14'0 0.0
2014-Aug-29 19:29N 51°19' E 003°14'0 0.0
2014-Aug-29 18:32N 51°19' E 003°14'0 0.0
2014-Aug-29 17:32N 51°19' E 003°14'0 0.0
2014-Aug-29 16:32N 51°19' E 003°14'0 0.0
2014-Aug-29 15:32N 51°19' E 003°14'0 0.0
2014-Aug-29 14:32N 51°19' E 003°14'0 0.0
2014-Aug-29 13:32N 51°19' E 003°14'0 0.0
2014-Aug-29 12:32N 51°19' E 003°14'0 0.0
2014-Aug-29 11:32N 51°19' E 003°14'0 0.0
2014-Aug-29 10:32N 51°19' E 003°14'0 0.0
2014-Aug-29 09:32N 51°19' E 003°14'0 0.0
2014-Aug-29 08:29N 51°19' E 003°14'0 0.0
2014-Aug-29 07:32N 51°19' E 003°14'0 0.0
2014-Aug-29 06:32N 51°19' E 003°14'0 0.0
2014-Aug-29 05:32N 51°19' E 003°14'0 0.0
2014-Aug-29 04:32N 51°19' E 003°14'0 0.0
2014-Aug-29 03:32N 51°19' E 003°14'0 0.0
2014-Aug-29 02:32N 51°19' E 003°14'0 0.0
2014-Aug-29 01:32N 51°19' E 003°14'0 0.0
2014-Aug-29 00:32N 51°19' E 003°14'0 0.0
2014-Aug-28 23:32N 51°19' E 003°14'0 0.0
2014-Aug-28 22:32N 51°19' E 003°14'0 0.1
2014-Aug-28 21:33N 51°19' E 003°13'1 1.0
2014-Aug-28 20:34N 51°20' E 003°13'5 5.2
2014-Aug-28 19:33N 51°24' E 003°07'1414.2
2014-Aug-28 18:33N 51°22' E 002°45'1211.8
2014-Aug-28 17:33N 51°34' E 002°43'10514.6
2014-Aug-28 10:25N 53°04' E 004°11'1415.6
2014-Aug-28 09:33N 53°14' E 004°26'5614.0
2014-Aug-28 05:33N 53°42' E 005°47'1717.2
2014-Aug-28 04:33N 53°48' E 006°15'1717.6
2014-Aug-28 03:33N 53°52' E 006°43'1717.5
2014-Aug-28 02:33N 53°56' E 007°12'1616.4
2014-Aug-28 01:33N 53°59' E 007°40'1110.8
2014-Aug-28 00:32N 53°52' E 007°55'1313.6
2014-Aug-27 23:34N 53°45' E 008°13'1414.0
2014-Aug-27 22:34N 53°35' E 008°31'2 1.6
2014-Aug-27 21:33N 53°34' E 008°33'0 0.4
2014-Aug-27 20:33N 53°35' E 008°33'0 0.0
2014-Aug-27 19:33N 53°35' E 008°33'0 0.0
2014-Aug-27 18:33N 53°35' E 008°33'0 0.0
2014-Aug-27 17:33N 53°35' E 008°33'0 0.0
2014-Aug-27 16:33N 53°35' E 008°33'0 0.0
2014-Aug-27 15:33N 53°35' E 008°33'0 0.0
2014-Aug-27 14:33N 53°35' E 008°33'0 0.0
2014-Aug-27 13:33N 53°35' E 008°33'0 0.0
2014-Aug-27 12:33N 53°35' E 008°33'0 0.0
2014-Aug-27 11:33N 53°35' E 008°33'0 0.0
2014-Aug-27 10:33N 53°35' E 008°33'0 0.0
2014-Aug-27 09:33N 53°35' E 008°33'0 0.0
2014-Aug-27 08:33N 53°35' E 008°33'0 0.0
2014-Aug-27 07:33N 53°35' E 008°33'0 0.0
2014-Aug-27 06:33N 53°35' E 008°33'0 0.0
2014-Aug-27 05:33N 53°35' E 008°33'0 0.0
2014-Aug-27 04:33N 53°35' E 008°33'0 0.0
2014-Aug-27 03:33N 53°35' E 008°33'0 0.0
2014-Aug-27 02:33N 53°35' E 008°33'0 0.0
2014-Aug-27 01:33N 53°35' E 008°33'0 0.0
2014-Aug-27 00:33N 53°35' E 008°33'0 0.0
2014-Aug-26 23:33N 53°35' E 008°33'0 0.0
2014-Aug-26 22:33N 53°35' E 008°33'1 0.5
2014-Aug-26 21:33N 53°34' E 008°33'0 0.0
2014-Aug-26 20:32N 53°34' E 008°33'0 0.0
2014-Aug-26 19:32N 53°34' E 008°33'0 0.0
2014-Aug-26 18:29N 53°34' E 008°33'0 0.0
2014-Aug-26 17:29N 53°34' E 008°33'0 0.0
2014-Aug-26 16:29N 53°34' E 008°33'0 0.0
2014-Aug-26 15:32N 53°34' E 008°33'0 0.0
2014-Aug-26 14:26N 53°34' E 008°33'0 0.0
2014-Aug-26 13:26N 53°34' E 008°33'0 0.0
2014-Aug-26 12:32N 53°34' E 008°33'0 0.0
2014-Aug-26 11:32N 53°34' E 008°33'0 0.0
2014-Aug-26 10:26N 53°34' E 008°33'0 0.0
2014-Aug-26 09:32N 53°34' E 008°33'0 0.0
2014-Aug-26 08:32N 53°34' E 008°33'0 0.0
2014-Aug-26 06:05N 53°34' E 008°33'0 0.0
2014-Aug-26 04:20N 53°34' E 008°33'0 0.0
2014-Aug-26 03:32N 53°34' E 008°33'0 0.0
2014-Aug-26 02:32N 53°34' E 008°33'0 0.0
2014-Aug-26 01:32N 53°34' E 008°33'0 0.0
2014-Aug-26 00:32N 53°34' E 008°33'0 0.0
2014-Aug-25 23:29N 53°34' E 008°33'0 0.0
2014-Aug-25 22:32N 53°34' E 008°33'0 0.0
2014-Aug-25 21:32N 53°34' E 008°33'0 0.0
2014-Aug-25 20:32N 53°34' E 008°33'0 0.0
2014-Aug-25 19:32N 53°34' E 008°33'0 0.0
2014-Aug-25 18:32N 53°34' E 008°33'0 0.0
2014-Aug-25 17:32N 53°34' E 008°33'0 0.0
2014-Aug-25 16:32N 53°34' E 008°33'0 0.0
2014-Aug-25 15:32N 53°34' E 008°33'0 0.0
2014-Aug-25 14:32N 53°34' E 008°33'0 0.0
2014-Aug-25 13:32N 53°34' E 008°33'0 0.0
2014-Aug-25 12:32N 53°34' E 008°33'0 0.0
2014-Aug-25 11:32N 53°34' E 008°33'0 0.0
2014-Aug-25 10:32N 53°34' E 008°33'0 0.0
2014-Aug-25 09:32N 53°34' E 008°33'0 0.0
2014-Aug-25 08:32N 53°34' E 008°33'0 0.0
2014-Aug-25 07:32N 53°34' E 008°33'0 0.0
2014-Aug-25 06:32N 53°34' E 008°33'0 0.0
2014-Aug-25 05:32N 53°34' E 008°33'0 0.0
2014-Aug-25 04:32N 53°34' E 008°33'0 0.0
2014-Aug-25 03:32N 53°34' E 008°33'0 0.0
2014-Aug-25 02:32N 53°34' E 008°33'0 0.0
2014-Aug-25 01:32N 53°34' E 008°33'0 0.0
2014-Aug-25 00:32N 53°34' E 008°33'0 0.0
2014-Aug-24 23:32N 53°34' E 008°33'0 0.0
2014-Aug-24 22:32N 53°34' E 008°33'0 0.0
2014-Aug-24 21:32N 53°34' E 008°33'0 0.0
2014-Aug-24 20:32N 53°34' E 008°33'0 0.0
2014-Aug-24 19:32N 53°34' E 008°33'0 0.0
2014-Aug-24 18:32N 53°34' E 008°33'0 0.0
2014-Aug-24 17:32N 53°34' E 008°33'0 0.0
2014-Aug-24 16:32N 53°34' E 008°33'0 0.0
2014-Aug-24 15:32N 53°34' E 008°33'0 0.0
2014-Aug-24 14:32N 53°34' E 008°33'0 0.0
2014-Aug-24 13:32N 53°34' E 008°33'0 0.0
2014-Aug-24 12:32N 53°34' E 008°33'0 0.0
2014-Aug-24 11:32N 53°34' E 008°33'0 0.0
2014-Aug-24 10:29N 53°34' E 008°33'0 0.0
2014-Aug-24 09:32N 53°34' E 008°33'0 0.0
2014-Aug-24 08:32N 53°34' E 008°33'0 0.0
2014-Aug-24 07:32N 53°34' E 008°33'0 0.0
2014-Aug-24 06:32N 53°34' E 008°33'0 0.0
2014-Aug-24 05:32N 53°34' E 008°33'0 0.0
2014-Aug-24 04:32N 53°34' E 008°33'0 0.0
2014-Aug-24 03:32N 53°34' E 008°33'0 0.0
2014-Aug-24 02:32N 53°34' E 008°33'0 0.0
2014-Aug-24 01:32N 53°34' E 008°33'0 0.0
2014-Aug-24 00:32N 53°34' E 008°33'0 0.0
2014-Aug-23 23:32N 53°34' E 008°33'0 0.0
2014-Aug-23 22:32N 53°34' E 008°33'0 0.0
2014-Aug-23 21:32N 53°34' E 008°33'0 0.0
2014-Aug-23 20:32N 53°34' E 008°33'0 0.0
2014-Aug-23 19:32N 53°34' E 008°33'0 0.0
2014-Aug-23 03:31N 53°34' E 008°33'0 0.0
2014-Aug-23 02:31N 53°34' E 008°33'0 0.0
2014-Aug-23 01:31N 53°34' E 008°33'0 0.0
2014-Aug-23 00:31N 53°34' E 008°33'0 0.0
2014-Aug-22 23:32N 53°34' E 008°33'0 0.0
2014-Aug-22 22:32N 53°34' E 008°33'0 0.0
2014-Aug-22 21:31N 53°34' E 008°33'0 0.0
2014-Aug-22 20:31N 53°34' E 008°33'0 0.0
2014-Aug-22 19:31N 53°34' E 008°33'0 0.0
2014-Aug-22 18:31N 53°34' E 008°33'0 0.0
2014-Aug-22 17:31N 53°34' E 008°33'0 0.0
2014-Aug-22 16:31N 53°34' E 008°33'0 0.0
2014-Aug-22 15:32N 53°34' E 008°33'0 0.0
2014-Aug-22 14:28N 53°34' E 008°33'0 0.0
2014-Aug-22 13:31N 53°34' E 008°33'0 0.0
2014-Aug-22 12:31N 53°34' E 008°33'0 0.0
2014-Aug-22 11:31N 53°34' E 008°33'0 0.0
2014-Aug-22 10:28N 53°34' E 008°33'0 0.0
2014-Aug-22 09:31N 53°34' E 008°33'0 0.0
2014-Aug-22 08:31N 53°34' E 008°33'0 0.0
2014-Aug-22 07:31N 53°34' E 008°33'0 0.0
2014-Aug-22 06:31N 53°34' E 008°33'0 0.0
2014-Aug-22 05:31N 53°34' E 008°33'0 0.0
2014-Aug-22 04:32N 53°34' E 008°33'0 0.0
2014-Aug-22 03:31N 53°34' E 008°33'0 0.0
2014-Aug-22 02:31N 53°34' E 008°33'0 0.0
2014-Aug-22 01:31N 53°34' E 008°33'0 0.0
2014-Aug-22 00:31N 53°34' E 008°33'0 0.0
2014-Aug-21 23:31N 53°34' E 008°33'0 0.0
2014-Aug-21 22:31N 53°34' E 008°33'0 0.0
2014-Aug-21 21:31N 53°34' E 008°33'0 0.0
2014-Aug-21 20:31N 53°34' E 008°33'0 0.0
2014-Aug-21 19:31N 53°34' E 008°33'0 0.0
2014-Aug-21 18:31N 53°34' E 008°33'0 0.0
2014-Aug-21 17:31N 53°34' E 008°33'0 0.0
2014-Aug-21 16:31N 53°34' E 008°33'0 0.0
2014-Aug-21 15:31N 53°34' E 008°33'0 0.0
2014-Aug-21 14:31N 53°34' E 008°33'0 0.0
2014-Aug-21 13:31N 53°34' E 008°33'0 0.0
2014-Aug-21 12:31N 53°34' E 008°33'0 0.0
2014-Aug-21 11:31N 53°34' E 008°33'0 0.0
2014-Aug-21 10:31N 53°34' E 008°33'0 0.0
2014-Aug-21 09:31N 53°34' E 008°33'0 0.0
2014-Aug-21 08:31N 53°34' E 008°33'0 0.0
2014-Aug-21 07:31N 53°34' E 008°33'0 0.0
2014-Aug-21 06:31N 53°34' E 008°33'0 0.0
2014-Aug-21 05:31N 53°34' E 008°33'0 0.0
2014-Aug-21 04:31N 53°34' E 008°33'0 0.0
2014-Aug-21 03:31N 53°34' E 008°33'0 0.0
2014-Aug-21 02:31N 53°34' E 008°33'0 0.0
2014-Aug-21 01:31N 53°34' E 008°33'0 0.0
2014-Aug-21 00:31N 53°34' E 008°33'0 0.0
2014-Aug-20 23:31N 53°34' E 008°33'0 0.0
2014-Aug-20 22:31N 53°34' E 008°33'0 0.0
2014-Aug-20 21:31N 53°34' E 008°33'0 0.0
2014-Aug-20 20:31N 53°34' E 008°33'0 0.0
2014-Aug-20 19:31N 53°34' E 008°33'0 0.0
2014-Aug-20 18:31N 53°34' E 008°33'0 0.0
2014-Aug-20 17:31N 53°34' E 008°33'0 0.0
2014-Aug-20 16:31N 53°34' E 008°33'0 0.0
2014-Aug-20 15:31N 53°34' E 008°33'0 0.0
2014-Aug-20 14:31N 53°34' E 008°33'0 0.0
2014-Aug-20 13:31N 53°34' E 008°33'0 0.0
2014-Aug-20 12:32N 53°34' E 008°33'0 0.0
2014-Aug-20 11:33N 53°34' E 008°33'0 0.0
2014-Aug-20 10:30N 53°34' E 008°33'0 0.0
2014-Aug-20 09:32N 53°34' E 008°33'0 0.0
2014-Aug-20 08:32N 53°34' E 008°33'0 0.0
2014-Aug-20 07:32N 53°34' E 008°33'  

Dump ship's entire track history